AirNav   Pilot Hours Calculator
 
 1096 users online  

VT47 Miller Farm Airfield
Vernon, Vermont, USA

GOING TO VERNON?


FAA INFORMATION EFFECTIVE 17 JUNE 2021

Location

FAA Identifier: VT47
Lat/Long: 42-46-43.0000N 072-31-40.0000W
42-46.716667N 072-31.666667W
42.7786111,-72.5277778
(estimated)
Elevation: 285 ft. / 87 m (estimated)
From city: 1 mile NW of VERNON, VT
Time zone: UTC -4 (UTC -5 during Standard Time)
Zip code: 05354

Airport Operations

Airport use: Private use. Permission required prior to landing
Activation date: 02/2003
Control tower: no
ARTCC: BOSTON CENTER
FSS: BURLINGTON FLIGHT SERVICE STATION
Attendance: UNATNDD
Segmented circle: no

Airport Communications

WX AWOS-3PT at EEN (13 nm NE): 119.025 (603-358-6424)
WX ASOS at ORE (16 nm SE): 135.675 (978-544-6774)

Nearby radio navigation aids

VOR radial/distance  VOR name  Freq  Var
EENr279/10.4KEENE VORTAC109.4014W
GDMr318/25.0GARDNER VOR/DME110.6014W
CTRr046/34.7CHESTER VOR/DME115.1013W
BAFr027/37.9BARNES VORTAC113.0014W
CAMr124/38.1CAMBRIDGE VOR/DME115.0014W

 
NDB name  Hdg/Dist  Freq  Var  ID
CLAREMONT207/36.123316WCNH -.-. -. ....

Airport Services

Runway Information

Runway 18/36

Dimensions: 1800 x 100 ft. / 549 x 30 m
Surface: turf
RUNWAY 18  RUNWAY 36
Traffic pattern: leftleft

Airport Ownership and Management from official FAA records

Ownership: Privately-owned
Owner: PETER MILLER
1732 FT BRIDGEMAN RD
VERNON, VT 05354
Phone 802-380-3862
Manager: PETER MILLER
1732 FT BRIDGEMAN RD
VERNON, VT 05354
Phone 802-380-3862

Airport Operational Statistics

Aircraft based on the field: 1
Single engine airplanes: 1
    

Additional Remarks

286 FT TOWER 3/5 NM SE OF RY.
FOR CD CTC BOSTON ARTCC AT 603-879-6859.

Instrument Procedures

There are no published instrument procedures at VT47.

Some nearby airports with instrument procedures:

0B5 - Turners Falls Airport (11 nm S)
KEEN - Dillant-Hopkins Airport (13 nm NE)
KORE - Orange Municipal Airport (16 nm SE)
4V8 - Deerfield Valley Regional Airport (17 nm NW)
KAFN - Jaffrey/Silver Ranch Airport (23 nm E)
 
Loc | Ops | Rwys | IFR | FBO | Links
Com | Nav | Svcs | Stats | Notes
Area around VT47 (Miller Farm Airfield)
 
Road maps at: MapQuest Bing Google
 
Aerial photo
No photo
 
Sectional chart

 
Airport distance calculator
Flying to Miller Farm Airfield? Find the distance to fly.

From to VT47

Sunrise and sunset
Times for 18-Jun-2021
 Local
(UTC-4)
 Zulu
(UTC)
Morning civil twilight04:3708:37
Sunrise05:1209:12
Sunset20:3000:30
Evening civil twilight21:0501:05

Current date and time
Zulu (UTC)  18-Jun-2021 12:52:51
Local (UTC-4)  18-Jun-2021 08:52:51
 
METAR
KEEN 
13nm NE 
181156Z AUTO 00000KT 10SM CLR 12/09 A3003 RMK AO2 SLP175 T01220089 10122 20061 50002 $
KORE 
17nm SE 
181152Z AUTO 00000KT 10SM CLR 13/10 A3003 RMK AO2 SLP169 T01330100 10133 20072 58001
KAFN 
23nm E 
181152Z AUTO VRB04KT 10SM CLR 16/09 A3003 RMK AO2 SLP170 T01560089 10156 20078 50002 TSNO
TAF
KCEF 
35nm S 
181100Z 1811/1917 VRB06KT 9999 FEW250 QNH3000INS BECMG 1814/1815 23010G15KT 9999 SCT250 QNH2989INS BECMG 1821/1822 21009KT 9999 FEW100 BKN150 QNH2987INS BECMG 1902/1903 21009KT 9999 SCT070 OVC100 510103 QNH2982INS TEMPO 1904/1908 8000 -SHRA OVC055 BECMG 1907/1908 19009KT 9999 OVC060 WS020/24035KT 510103 QNH2980INS BECMG 1911/1912 23012KT 8000 -SHRA OVC030 510202 QNH2979INS TX29/1820Z TN12/1910Z
KBAF 
38nm S 
181121Z 1812/1912 00000KT P6SM FEW250 FM181500 23006KT P6SM FEW250 FM182100 23007KT P6SM BKN250 FM190300 18005KT P6SM OVC100 FM191000 18004KT P6SM BKN035
KPSF 
39nm SW 
181127Z 1812/1912 00000KT P6SM SCT250 FM181300 21006KT P6SM FEW150 SCT250 FM181600 20009KT P6SM SCT050 BKN250 FM182200 20007KT P6SM SCT050 BKN100 FM190000 20004KT P6SM OVC050 PROB30 1900/1906 3SM -SHRA BR OVC035 FM190600 20004KT P6SM OVC050 PROB30 1906/1912 3SM -SHRA BR OVC035
KORH 
42nm SE 
181121Z 1812/1912 25007KT P6SM FEW250 FM181500 24010KT P6SM FEW250 FM182300 21008KT P6SM BKN250 FM190400 22008KT P6SM OVC100 FM191000 22008KT P6SM BKN035
NOTAMs
Click for the latest NOTAMs
NOTAMs are issued by the DoD/FAA and will open in a separate window not controlled by AirNav.

 

 
 

Would you like to see your business listed on this page?

 If your business provides an interesting product or service to pilots, flight crews, aircraft, or users of the Miller Farm Airfield, you should consider listing it here.  To start the listing process, click on the button below
 
Add a business
 

Other Pages about Miller Farm Airfield

Update a link
 
Copyright © AirNav, LLC. All rights reserved. Privacy Policy  Contact